WAPP/AMQ METAR and TAF weather

Enter ICAO airport designator
Station Type Date Time Source
WAPP METAR 2020/04/09 09:00 UTC NOAA

WAPP 090900Z 30006KT 230V340 9000 VCSH FEW017CB 28/24 Q1010 NOSIG RMK CB TO W


Station Type Date Time Source
WAPP Decoded METAR 2020/04/09 09:00 UTC NOAA

Ambon / Pattimura, Indonesia (WAPP) 03-42S 128-05E 12M
Apr 09, 2020 - 05:00 AM EDT / 2020.04.09 0900 UTC
Wind: from the WNW (300 degrees) at 7 MPH (6 KT) (direction variable):0
Visibility: 5 mile(s):0
Sky conditions: mostly clear
Weather: showers in the vicinity; Cumulonimbus clouds observed
Temperature: 82 F (28 C)
Dew Point: 75 F (24 C)
Relative Humidity: 78%
Pressure (altimeter): 29.83 in. Hg (1010 hPa)
ob: WAPP 090900Z 30006KT 230V340 9000 VCSH FEW017CB 28/24 Q1010 NOSIG RMK CB TO W
cycle: 9

Station Type Date Time Source
WAPP TAF 2015/06/30 00:57 UTC NOAA

TAF WAPP 302300Z 0100/0124 34006KT 9999 SCT018
TEMPO 0101/0104 7000 -RA BKN017
BECMG 0105/0107 21006KT
BECMG 0109/0111 32006KT

Example: see airport list